createdAt,value
2022-11-16T00:00:51.313Z,97.43
2022-11-16T00:03:24.515Z,96.90
2022-11-16T00:06:00.934Z,98.72
2022-11-16T00:08:35.497Z,98.30
2022-11-16T00:11:10.694Z,98.38
2022-11-16T00:13:45.034Z,97.24
2022-11-16T00:16:21.835Z,97.35
2022-11-16T00:19:00.033Z,98.50
2022-11-16T00:21:33.535Z,99.24
2022-11-16T00:24:07.395Z,98.54
2022-11-16T00:26:40.401Z,99.04
2022-11-16T00:29:18.277Z,97.19
2022-11-16T00:31:54.538Z,99.22
2022-11-16T00:34:28.081Z,96.41
2022-11-16T00:37:00.976Z,95.46
2022-11-16T00:39:34.861Z,96.43
2022-11-16T00:42:07.573Z,96.03
2022-11-16T00:44:40.912Z,95.39
2022-11-16T00:47:16.053Z,94.70
2022-11-16T00:49:49.074Z,95.79
2022-11-16T00:52:21.513Z,95.97
2022-11-16T00:55:35.760Z,97.22
2022-11-16T00:58:08.476Z,97.64
2022-11-16T01:00:41.755Z,97.45
2022-11-16T01:03:17.036Z,97.51
2022-11-16T01:05:50.183Z,98.11
2022-11-16T01:08:22.719Z,96.89
2022-11-16T01:10:55.874Z,97.87
2022-11-16T01:13:25.715Z,98.74
2022-11-16T01:16:00.085Z,96.77
2022-11-16T01:18:35.573Z,98.66
2022-11-16T01:21:10.676Z,98.17
2022-11-16T01:23:43.094Z,97.56
2022-11-16T01:26:16.113Z,97.03
2022-11-16T01:28:48.797Z,97.42
2022-11-16T01:31:21.837Z,95.60
2022-11-16T01:33:58.093Z,95.95
2022-11-16T01:36:31.140Z,95.49
2022-11-16T01:39:03.554Z,96.46
2022-11-16T01:41:36.695Z,95.13
2022-11-16T01:44:11.175Z,94.09
2022-11-16T01:46:44.673Z,95.12
2022-11-16T01:49:23.876Z,94.69
2022-11-16T01:52:00.434Z,94.06
2022-11-16T01:54:34.562Z,93.32
2022-11-16T01:57:09.813Z,94.17
2022-11-16T01:59:42.693Z,94.01
2022-11-16T02:02:16.036Z,94.06
2022-11-16T02:04:52.194Z,94.93
2022-11-16T02:07:58.913Z,94.75
2022-11-16T02:10:47.433Z,95.91
2022-11-16T02:13:37.552Z,96.41
2022-11-16T02:16:23.336Z,96.94
2022-11-16T02:19:05.414Z,96.93
2022-11-16T02:21:47.692Z,97.11
2022-11-16T02:24:46.239Z,98.87
2022-11-16T02:27:48.200Z,95.76
2022-11-16T02:30:26.111Z,96.06
2022-11-16T02:33:04.151Z,95.01
2022-11-16T02:35:41.285Z,95.53
2022-11-16T02:38:17.647Z,97.43
2022-11-16T02:40:53.707Z,98.21
2022-11-16T02:43:29.990Z,98.15
2022-11-16T02:46:10.360Z,98.85
2022-11-16T02:48:47.226Z,98.69
2022-11-16T02:51:20.584Z,98.24
2022-11-16T02:54:05.235Z,96.06
2022-11-16T02:56:47.029Z,96.07
2022-11-16T02:59:19.224Z,96.28
2022-11-16T03:05:32.275Z,100.00
2022-11-16T03:08:11.224Z,100.00
2022-11-16T03:10:57.160Z,99.35
2022-11-16T03:13:34.128Z,99.10
2022-11-16T03:16:11.160Z,98.00
2022-11-16T03:18:44.847Z,98.44
2022-11-16T03:21:26.269Z,100.00
2022-11-16T03:23:57.992Z,99.28
2022-11-16T03:26:35.634Z,98.35
2022-11-16T03:29:15.780Z,99.25
2022-11-16T03:31:52.446Z,95.80
2022-11-16T03:34:30.588Z,97.07
2022-11-16T03:37:06.710Z,97.12
2022-11-16T03:39:42.385Z,95.79
2022-11-16T03:42:17.221Z,95.80
2022-11-16T03:44:51.609Z,94.90
2022-11-16T03:47:22.860Z,94.89
2022-11-16T03:49:54.600Z,96.50
2022-11-16T03:52:28.709Z,96.55
2022-11-16T03:55:00.585Z,96.23
2022-11-16T03:57:31.687Z,93.99
2022-11-16T04:00:03.230Z,94.03
2022-11-16T04:02:34.688Z,93.49
2022-11-16T04:05:18.674Z,94.67
2022-11-16T04:08:05.181Z,96.55
2022-11-16T04:10:49.237Z,96.99
2022-11-16T04:13:40.823Z,99.91
2022-11-16T04:16:26.157Z,98.40
2022-11-16T04:19:09.743Z,97.91
2022-11-16T04:22:04.825Z,97.72
2022-11-16T04:24:42.822Z,98.05
2022-11-16T04:27:31.289Z,97.57
2022-11-16T04:30:04.273Z,97.59
2022-11-16T04:32:49.269Z,96.79
2022-11-16T04:35:32.712Z,99.30
2022-11-16T04:38:04.461Z,98.63
2022-11-16T04:40:38.316Z,99.91
2022-11-16T04:43:10.192Z,99.68
2022-11-16T04:45:53.753Z,100.00
2022-11-16T04:48:25.780Z,99.41
2022-11-16T04:50:57.431Z,100.00
2022-11-16T04:53:29.377Z,100.00
2022-11-16T04:56:03.413Z,100.00
2022-11-16T04:58:35.343Z,100.00
2022-11-16T05:01:06.715Z,100.00
2022-11-16T05:03:38.517Z,100.00
2022-11-16T05:06:10.536Z,100.00
2022-11-16T05:08:42.185Z,99.78
2022-11-16T05:11:16.253Z,100.00
2022-11-16T05:13:47.926Z,100.00
2022-11-16T05:16:19.337Z,100.00
2022-11-16T05:19:11.441Z,100.00
2022-11-16T05:21:40.049Z,100.00
2022-11-16T05:24:24.359Z,100.00
2022-11-16T05:26:58.075Z,100.00
2022-11-16T05:29:30.317Z,100.00
2022-11-16T05:32:01.523Z,100.00
2022-11-16T05:34:34.194Z,100.00
2022-11-16T05:37:05.695Z,100.00
2022-11-16T05:39:37.827Z,100.00
2022-11-16T05:42:12.267Z,100.00
2022-11-16T05:44:44.066Z,99.50
2022-11-16T05:47:15.460Z,98.43
2022-11-16T05:49:47.171Z,98.08
2022-11-16T05:52:18.293Z,97.73
2022-11-16T05:54:50.225Z,97.81
2022-11-16T05:57:24.174Z,99.79
2022-11-16T05:59:55.827Z,100.00
2022-11-16T06:05:25.025Z,98.78
2022-11-16T06:07:56.493Z,98.61
2022-11-16T06:10:27.853Z,97.75
2022-11-16T06:13:04.072Z,96.87
2022-11-16T06:15:35.336Z,97.80
2022-11-16T06:18:07.293Z,96.27
2022-11-16T06:20:40.358Z,97.61
2022-11-16T06:23:11.639Z,96.09
2022-11-16T06:25:43.325Z,95.40
2022-11-16T06:28:17.500Z,95.75
2022-11-16T06:30:48.856Z,97.30
2022-11-16T06:33:21.405Z,97.17
2022-11-16T06:35:52.233Z,96.97
2022-11-16T06:38:24.101Z,98.78
2022-11-16T06:40:57.335Z,96.60
2022-11-16T06:43:31.547Z,97.96
2022-11-16T06:46:02.873Z,98.02
2022-11-16T06:48:35.016Z,99.88
2022-11-16T06:51:06.361Z,99.29
2022-11-16T06:53:38.490Z,97.02
2022-11-16T06:56:10.769Z,96.28
2022-11-16T06:58:45.533Z,96.53
2022-11-16T07:01:17.665Z,97.50
2022-11-16T07:03:49.742Z,98.53
2022-11-16T07:06:21.375Z,98.71
2022-11-16T07:08:53.427Z,97.16
2022-11-16T07:11:24.913Z,96.08
2022-11-16T07:14:01.461Z,97.13
2022-11-16T07:16:35.669Z,96.00
2022-11-16T07:19:08.250Z,95.19
2022-11-16T07:21:41.382Z,95.37
2022-11-16T07:24:14.189Z,97.89
2022-11-16T07:26:45.725Z,96.64
2022-11-16T07:29:21.865Z,98.39
2022-11-16T07:31:53.800Z,97.17
2022-11-16T07:34:25.840Z,98.55
2022-11-16T07:36:57.479Z,99.20
2022-11-16T07:39:44.412Z,99.85
2022-11-16T07:42:17.268Z,97.77
2022-11-16T07:44:53.787Z,97.31
2022-11-16T07:47:26.919Z,97.46
2022-11-16T07:50:00.627Z,96.72
2022-11-16T07:52:34.016Z,97.71
2022-11-16T07:55:08.078Z,96.86
2022-11-16T07:57:41.318Z,94.96
2022-11-16T08:00:18.559Z,95.56
2022-11-16T08:02:51.837Z,96.16
2022-11-16T08:05:25.717Z,95.38
2022-11-16T08:07:58.917Z,96.33
2022-11-16T08:10:34.158Z,95.89
2022-11-16T08:13:07.757Z,95.86
2022-11-16T08:15:46.496Z,95.02
2022-11-16T08:18:21.204Z,95.82
2022-11-16T08:20:53.801Z,96.89
2022-11-16T08:23:26.090Z,97.62
2022-11-16T08:26:02.341Z,96.48
2022-11-16T08:28:36.210Z,95.86
2022-11-16T08:31:15.642Z,95.45
2022-11-16T08:34:03.842Z,95.62
2022-11-16T08:36:36.524Z,95.20
2022-11-16T08:39:10.427Z,95.18
2022-11-16T08:41:44.773Z,96.19
2022-11-16T08:44:22.489Z,96.35
2022-11-16T08:46:57.899Z,96.31
2022-11-16T08:49:34.566Z,96.29
2022-11-16T08:52:10.891Z,95.36
2022-11-16T08:54:43.328Z,95.55
2022-11-16T08:57:17.708Z,95.63
2022-11-16T08:59:49.903Z,94.88
2022-11-16T09:02:25.962Z,93.18
2022-11-16T09:04:58.187Z,92.12
2022-11-16T09:07:31.323Z,92.98
2022-11-16T09:10:03.572Z,93.97
2022-11-16T09:12:36.674Z,92.76
2022-11-16T09:15:12.253Z,93.61
2022-11-16T09:17:55.282Z,92.99
2022-11-16T09:20:31.477Z,93.60
2022-11-16T09:23:03.531Z,93.71
2022-11-16T09:25:35.604Z,94.02
2022-11-16T09:28:09.896Z,93.75
2022-11-16T09:30:41.511Z,92.84
2022-11-16T09:33:16.662Z,93.37
2022-11-16T09:35:49.421Z,95.11
2022-11-16T09:38:40.289Z,94.36
2022-11-16T09:41:38.092Z,92.74
2022-11-16T09:44:25.601Z,90.85
2022-11-16T09:47:03.056Z,90.99
2022-11-16T09:49:44.780Z,91.26
2022-11-16T09:52:29.365Z,90.46
2022-11-16T09:55:15.930Z,90.49
2022-11-16T10:00:45.461Z,90.17
2022-11-16T10:03:19.978Z,90.21
2022-11-16T10:06:06.544Z,90.15
2022-11-16T10:08:48.179Z,90.66
2022-11-16T10:11:51.571Z,88.15
2022-11-16T10:14:39.442Z,89.31
2022-11-16T10:17:24.321Z,89.64
2022-11-16T10:20:00.307Z,89.59
2022-11-16T10:23:04.267Z,88.75
2022-11-16T10:25:46.108Z,89.63
2022-11-16T10:28:48.387Z,87.57
2022-11-16T10:31:30.872Z,88.87
2022-11-16T10:34:06.696Z,88.81
2022-11-16T10:36:43.870Z,88.56
2022-11-16T10:39:21.420Z,89.14
2022-11-16T10:41:54.006Z,89.63
2022-11-16T10:44:36.250Z,87.72
2022-11-16T10:47:15.858Z,87.49
2022-11-16T10:49:59.027Z,87.91
2022-11-16T10:52:34.604Z,88.76
2022-11-16T10:55:19.456Z,88.47
2022-11-16T10:58:03.456Z,87.64
2022-11-16T11:00:49.614Z,87.42
2022-11-16T11:03:36.975Z,87.79
2022-11-16T11:06:14.330Z,90.50
2022-11-16T11:08:45.521Z,90.18
2022-11-16T11:11:38.799Z,89.41
2022-11-16T11:14:14.650Z,89.62
2022-11-16T11:16:46.905Z,88.29
2022-11-16T11:19:24.990Z,86.37
2022-11-16T11:22:01.182Z,85.38
2022-11-16T11:24:48.269Z,84.43
2022-11-16T11:27:31.097Z,85.16
2022-11-16T11:30:04.742Z,84.41
2022-11-16T11:32:48.011Z,85.91
2022-11-16T11:35:28.468Z,85.52
2022-11-16T11:38:08.023Z,85.59
2022-11-16T11:40:45.073Z,84.88
2022-11-16T11:43:27.262Z,84.45
2022-11-16T11:46:07.531Z,84.55
2022-11-16T11:48:49.071Z,85.73
2022-11-16T11:51:28.945Z,86.62
2022-11-16T11:54:02.840Z,86.77
2022-11-16T11:56:38.180Z,86.69
2022-11-16T11:59:21.299Z,85.25
2022-11-16T12:02:19.797Z,85.43
2022-11-16T12:05:35.999Z,86.32
2022-11-16T12:08:25.706Z,86.95
2022-11-16T12:11:06.864Z,86.05
2022-11-16T12:14:00.292Z,84.75
2022-11-16T12:16:48.130Z,84.86
2022-11-16T12:19:42.694Z,84.74
2022-11-16T12:22:32.589Z,83.88
2022-11-16T12:25:21.270Z,86.68
2022-11-16T12:28:17.107Z,86.83
2022-11-16T12:31:03.263Z,84.47
2022-11-16T12:33:47.519Z,85.56
2022-11-16T12:36:43.779Z,85.51
2022-11-16T12:39:28.920Z,84.45
2022-11-16T12:42:40.539Z,84.88
2022-11-16T12:45:39.314Z,83.86
2022-11-16T12:48:31.095Z,83.78
2022-11-16T12:51:18.684Z,84.08
2022-11-16T12:54:17.496Z,83.73
2022-11-16T12:56:57.524Z,82.85
2022-11-16T12:59:44.428Z,81.49
2022-11-16T13:02:31.368Z,83.08
2022-11-16T13:05:13.824Z,83.17
2022-11-16T13:07:52.630Z,82.28
2022-11-16T13:10:30.802Z,81.92
2022-11-16T13:13:34.786Z,84.33
2022-11-16T13:16:08.091Z,83.44
2022-11-16T13:18:46.056Z,83.12
2022-11-16T13:21:32.167Z,83.26
2022-11-16T13:24:25.077Z,83.05
2022-11-16T13:27:06.584Z,82.75
2022-11-16T13:29:47.207Z,84.01
2022-11-16T13:32:26.344Z,83.48
2022-11-16T13:35:01.062Z,83.13
2022-11-16T13:37:47.810Z,82.42
2022-11-16T13:40:37.610Z,81.31
2022-11-16T13:43:33.693Z,83.09
2022-11-16T13:46:54.372Z,80.41
2022-11-16T13:49:34.930Z,80.61
2022-11-16T13:52:23.102Z,80.21
2022-11-16T13:55:02.121Z,81.98
2022-11-16T13:57:39.236Z,81.67
2022-11-16T14:00:15.958Z,80.13
2022-11-16T14:02:49.524Z,79.14
2022-11-16T14:05:42.836Z,79.48
2022-11-16T14:08:48.281Z,80.48
2022-11-16T14:11:36.961Z,81.17
2022-11-16T14:14:17.479Z,80.73
2022-11-16T14:16:53.639Z,81.23
2022-11-16T14:20:00.913Z,80.97
2022-11-16T14:23:02.790Z,80.44
2022-11-16T14:25:47.632Z,80.44
2022-11-16T14:28:47.241Z,80.51
2022-11-16T14:31:28.880Z,80.64
2022-11-16T14:34:04.719Z,80.86
2022-11-16T14:36:43.843Z,81.58
2022-11-16T14:39:37.921Z,81.22
2022-11-16T14:42:20.969Z,81.81
2022-11-16T14:45:03.762Z,81.05
2022-11-16T14:47:41.084Z,82.49
2022-11-16T14:50:23.440Z,82.65
2022-11-16T14:53:01.001Z,83.00
2022-11-16T14:55:34.765Z,83.93
2022-11-16T14:58:12.721Z,83.70
2022-11-16T15:00:56.050Z,83.46
2022-11-16T15:03:37.450Z,82.81
2022-11-16T15:06:28.885Z,82.10
2022-11-16T15:09:05.997Z,83.15
2022-11-16T15:11:55.595Z,84.93
2022-11-16T15:14:33.236Z,83.88
2022-11-16T15:17:07.477Z,84.54
2022-11-16T15:19:44.020Z,85.37
2022-11-16T15:22:21.821Z,85.45
2022-11-16T15:24:59.866Z,85.31
2022-11-16T15:27:49.090Z,85.00
2022-11-16T15:30:25.404Z,85.00
2022-11-16T15:32:59.654Z,84.98
2022-11-16T15:35:37.794Z,84.42
2022-11-16T15:38:19.039Z,84.22
2022-11-16T15:40:55.565Z,83.58
2022-11-16T15:43:33.047Z,84.82
2022-11-16T15:46:08.601Z,86.00
2022-11-16T15:48:42.607Z,86.68
2022-11-16T15:51:22.703Z,84.97
2022-11-16T15:53:56.926Z,83.25
2022-11-16T15:56:36.741Z,83.40
2022-11-16T15:59:17.301Z,83.08
2022-11-16T16:01:50.444Z,82.63
2022-11-16T16:04:24.658Z,82.68
2022-11-16T16:07:02.727Z,82.91
2022-11-16T16:09:38.540Z,81.45
2022-11-16T16:12:29.379Z,80.82
2022-11-16T16:15:24.269Z,80.77
2022-11-16T16:17:58.141Z,79.68
2022-11-16T16:20:33.505Z,81.05
2022-11-16T16:23:16.916Z,82.47
2022-11-16T16:25:50.757Z,81.55
2022-11-16T16:28:23.865Z,80.38
2022-11-16T16:30:57.241Z,79.84
2022-11-16T16:33:30.619Z,79.82
2022-11-16T16:36:07.098Z,80.38
2022-11-16T16:38:42.977Z,80.85
2022-11-16T16:41:24.573Z,81.43
2022-11-16T16:43:57.969Z,81.96
2022-11-16T16:46:31.288Z,81.46
2022-11-16T16:49:04.255Z,81.39
2022-11-16T16:51:37.221Z,82.30
2022-11-16T16:54:16.800Z,82.34
2022-11-16T16:56:50.220Z,81.92
2022-11-16T16:59:23.335Z,80.86
2022-11-16T17:01:56.833Z,80.64
2022-11-16T17:04:30.112Z,80.71
2022-11-16T17:07:03.612Z,80.08
2022-11-16T17:09:39.672Z,79.77
2022-11-16T17:12:13.873Z,80.63
2022-11-16T17:14:52.154Z,80.38
2022-11-16T17:17:26.873Z,80.46
2022-11-16T17:19:59.888Z,80.38
2022-11-16T17:22:34.075Z,77.87
2022-11-16T17:25:10.321Z,78.86
2022-11-16T17:27:43.298Z,80.08
2022-11-16T17:30:17.817Z,79.44
2022-11-16T17:32:51.306Z,80.00
2022-11-16T17:35:24.580Z,80.27
2022-11-16T17:37:59.416Z,81.23
2022-11-16T17:40:35.380Z,81.08
2022-11-16T17:43:08.936Z,79.11
2022-11-16T17:45:41.859Z,79.81
2022-11-16T17:48:15.176Z,80.08
2022-11-16T17:50:51.940Z,80.67
2022-11-16T17:53:31.220Z,78.66
2022-11-16T17:56:09.658Z,79.91
2022-11-16T17:58:43.539Z,79.43
2022-11-16T18:01:18.113Z,79.59
2022-11-16T18:03:51.898Z,80.28
2022-11-16T18:06:27.336Z,78.99
2022-11-16T18:09:01.105Z,78.85
2022-11-16T18:11:37.458Z,80.52
2022-11-16T18:14:11.298Z,79.58
2022-11-16T18:16:44.978Z,78.82
2022-11-16T18:19:20.467Z,78.24
2022-11-16T18:21:54.138Z,78.07
2022-11-16T18:24:28.139Z,77.83
2022-11-16T18:27:04.508Z,78.99
2022-11-16T18:29:38.061Z,78.94
2022-11-16T18:32:13.346Z,79.12
2022-11-16T18:34:47.097Z,78.46
2022-11-16T18:37:20.780Z,77.74
2022-11-16T18:39:53.482Z,78.71
2022-11-16T18:42:27.846Z,77.91
2022-11-16T18:45:00.048Z,77.35
2022-11-16T18:47:31.789Z,77.04
2022-11-16T18:50:03.806Z,76.71
2022-11-16T18:52:35.435Z,77.03
2022-11-16T18:55:09.485Z,76.11
2022-11-16T18:57:43.490Z,75.85
2022-11-16T19:00:19.422Z,75.24
2022-11-16T19:02:51.343Z,75.68
2022-11-16T19:05:23.275Z,75.13
2022-11-16T19:07:55.009Z,75.59
2022-11-16T19:10:26.596Z,75.52
2022-11-16T19:13:00.548Z,75.28
2022-11-16T19:15:32.339Z,75.47
2022-11-16T19:18:21.400Z,75.72
2022-11-16T19:20:53.546Z,74.59
2022-11-16T19:23:24.861Z,74.64
2022-11-16T19:26:05.096Z,74.90
2022-11-16T19:28:46.140Z,75.32
2022-11-16T19:31:26.492Z,74.56
2022-11-16T19:34:04.797Z,73.30
2022-11-16T19:36:39.275Z,72.90
2022-11-16T19:39:10.824Z,74.89
2022-11-16T19:41:43.633Z,75.07
2022-11-16T19:44:18.972Z,74.80
2022-11-16T19:46:53.732Z,74.69
2022-11-16T19:49:26.715Z,75.44
2022-11-16T19:51:59.951Z,74.91
2022-11-16T19:54:32.813Z,73.64
2022-11-16T19:57:05.834Z,73.88
2022-11-16T19:59:41.374Z,75.26
2022-11-16T20:02:14.394Z,74.59
2022-11-16T20:04:47.270Z,74.73
2022-11-16T20:07:20.435Z,75.22
2022-11-16T20:09:53.640Z,74.44
2022-11-16T20:12:26.953Z,73.66
2022-11-16T20:15:03.322Z,73.07
2022-11-16T20:17:50.204Z,73.48
2022-11-16T20:20:29.521Z,73.37
2022-11-16T20:23:02.575Z,73.51
2022-11-16T20:25:35.129Z,74.14
2022-11-16T20:28:08.402Z,73.97
2022-11-16T20:30:49.828Z,73.91
2022-11-16T20:33:24.141Z,74.33
2022-11-16T20:36:02.900Z,74.34
2022-11-16T20:38:36.909Z,72.89
2022-11-16T20:41:14.683Z,72.65
2022-11-16T20:43:49.080Z,73.83
2022-11-16T20:46:26.522Z,74.41
2022-11-16T20:49:02.202Z,74.35
2022-11-16T20:51:35.121Z,73.70
2022-11-16T20:54:08.521Z,72.43
2022-11-16T20:56:41.373Z,73.32
2022-11-16T20:59:14.481Z,72.61
2022-11-16T21:01:51.096Z,72.57
2022-11-16T21:04:24.042Z,71.91
2022-11-16T21:06:56.899Z,73.74
2022-11-16T21:09:50.359Z,74.07
2022-11-16T21:12:38.813Z,73.97
2022-11-16T21:15:16.023Z,72.59
2022-11-16T21:17:51.941Z,73.88
2022-11-16T21:20:28.243Z,73.83
2022-11-16T21:23:01.824Z,72.97
2022-11-16T21:25:37.661Z,74.29
2022-11-16T21:28:10.883Z,74.14
2022-11-16T21:30:44.421Z,74.25
2022-11-16T21:33:20.201Z,73.13
2022-11-16T21:35:54.922Z,72.68
2022-11-16T21:38:29.088Z,73.63
2022-11-16T21:41:02.640Z,73.25
2022-11-16T21:43:37.005Z,74.04
2022-11-16T21:46:12.080Z,73.31
2022-11-16T21:48:48.501Z,72.71
2022-11-16T21:51:25.303Z,72.21
2022-11-16T21:53:58.863Z,73.33
2022-11-16T21:56:32.082Z,73.56
2022-11-16T21:59:04.702Z,73.67
2022-11-16T22:01:57.901Z,74.79
2022-11-16T22:04:46.022Z,74.88
2022-11-16T22:07:31.457Z,74.79
2022-11-16T22:10:04.845Z,73.89
2022-11-16T22:12:38.984Z,73.60
2022-11-16T22:15:12.903Z,74.86
2022-11-16T22:17:47.942Z,74.38
2022-11-16T22:20:23.741Z,73.60
2022-11-16T22:22:56.781Z,74.04
2022-11-16T22:25:29.650Z,72.65
2022-11-16T22:28:20.216Z,72.85
2022-11-16T22:30:53.742Z,74.37
2022-11-16T22:33:27.126Z,74.25
2022-11-16T22:36:02.565Z,74.28
2022-11-16T22:38:37.282Z,74.17
2022-11-16T22:41:10.089Z,73.27
2022-11-16T22:43:43.364Z,72.95
2022-11-16T22:46:16.004Z,72.42
2022-11-16T22:48:49.182Z,73.82
2022-11-16T22:51:26.921Z,74.68
2022-11-16T22:54:01.524Z,73.88
2022-11-16T22:56:35.481Z,74.03
2022-11-16T22:59:10.181Z,73.97
2022-11-16T23:01:43.382Z,74.46
2022-11-16T23:04:16.524Z,74.10
2022-11-16T23:06:52.319Z,73.95
2022-11-16T23:09:25.284Z,73.55
2022-11-16T23:12:10.545Z,73.70
2022-11-16T23:14:55.765Z,75.29
2022-11-16T23:17:28.570Z,74.38
2022-11-16T23:20:17.596Z,75.14
2022-11-16T23:23:05.597Z,74.89
2022-11-16T23:25:50.824Z,74.78
2022-11-16T23:28:24.314Z,73.65
2022-11-16T23:30:57.464Z,73.21
2022-11-16T23:33:42.345Z,73.72
2022-11-16T23:36:16.391Z,75.36
2022-11-16T23:38:52.005Z,75.26
2022-11-16T23:41:37.024Z,74.15
2022-11-16T23:44:10.124Z,75.46
2022-11-16T23:46:42.541Z,74.65
2022-11-16T23:49:14.204Z,75.16
2022-11-16T23:51:46.234Z,75.37
2022-11-16T23:54:20.600Z,75.04
2022-11-16T23:56:52.488Z,75.31
2022-11-16T23:59:24.121Z,74.40
